Time;durP1;ratioP1;P1;durP2;ratioP2;P2;SDS_P1;SDS_P2;PMS_P1;PMS_P2;Temp;Humidity;BMP_temperature;BMP_pressure;BME280_temperature;BME280_humidity;BME280_pressure;Samples;Min_cycle;Max_cycle;Signal;HPM_P1;HPM_P2
2022/01/29 00:00:41;;;;;;;;;;;;;;;6.19;100.00;102756.16;5081791;28;19920;-80
2022/01/29 00:03:06;;;;;;;;;;;;;;;6.18;100.00;102750.94;5086546;28;20495;-79
2022/01/29 00:05:31;;;;;;;;;;;;;;;6.18;100.00;102750.94;5088622;28;19916;-76
2022/01/29 00:07:57;;;;;;;;;;;;;;;6.22;100.00;102760.53;5086250;28;20281;-78
2022/01/29 00:10:22;;;;;;;;;;;;;;;6.21;100.00;102743.09;5088143;28;19922;-75
2022/01/29 00:12:47;;;;;;;;;;;;;;;6.25;100.00;102749.22;5087584;28;19916;-69
2022/01/29 00:15:13;;;;;;;;;;;;;;;6.25;100.00;102734.44;5085434;28;20013;-70
2022/01/29 00:17:39;;;;;;;;;;;;;;;6.27;100.00;102727.47;5086592;28;20063;-71
2022/01/29 00:20:04;;;;;;;;;;;;;;;6.27;100.00;102732.69;5085167;28;19920;-72
2022/01/29 00:22:30;;;;;;;;;;;;;;;6.28;100.00;102731.84;5087433;28;20381;-72
2022/01/29 00:24:57;;;;;;;;;;;;;;;6.29;100.00;102730.94;5086477;28;19920;-70
2022/01/29 00:27:22;;;;;;;;;;;;;;;6.29;100.00;102719.66;5088492;28;20001;-71
2022/01/29 00:29:48;;;;;;;;;;;;;;;6.32;100.00;102720.50;5084392;28;20586;-70
2022/01/29 00:32:13;;;;;;;;;;;;;;;6.34;100.00;102721.38;5085513;28;19928;-77
2022/01/29 00:34:40;;;;;;;;;;;;;;;6.34;100.00;102721.38;5087324;28;20369;-79
2022/01/29 00:37:06;;;;;;;;;;;;;;;6.39;100.00;102718.78;5076582;28;19970;-77
2022/01/29 00:39:31;;;;;;;;;;;;;;;6.41;100.00;102719.66;5090366;28;19951;-78
2022/01/29 00:41:57;;;;;;;;;;;;;;;6.43;100.00;102719.66;5085800;28;19928;-79
2022/01/29 00:44:22;;;;;;;;;;;;;;;6.47;100.00;102708.34;5087386;28;19924;-78
2022/01/29 00:46:47;;;;;;;;;;;;;;;6.45;100.00;102710.94;5087191;28;19928;-77
2022/01/29 00:49:13;;;;;;;;;;;;;;;6.48;100.00;102707.50;5086551;28;19916;-78
2022/01/29 00:51:39;;;;;;;;;;;;;;;6.47;100.00;102716.19;5083927;28;20305;-76
2022/01/29 00:54:04;;;;;;;;;;;;;;;6.48;100.00;102704.88;5074938;28;19943;-76
2022/01/29 00:56:30;;;;;;;;;;;;;;;6.54;100.00;102709.22;5088812;28;19955;-77
2022/01/29 00:58:55;;;;;;;;;;;;;;;6.55;100.00;102704.00;5083887;28;19920;-75
2022/01/29 01:01:21;;;;;;;;;;;;;;;6.52;100.00;102703.97;5084975;28;19924;-75
2022/01/29 01:03:46;;;;;;;;;;;;;;;6.58;100.00;102698.78;5086724;28;19927;-75
2022/01/29 01:06:11;;;;;;;;;;;;;;;6.59;100.00;102697.03;5086041;28;19920;-76
2022/01/29 01:08:37;;;;;;;;;;;;;;;6.57;100.00;102690.94;5086875;28;19923;-76
2022/01/29 01:11:04;;;;;;;;;;;;;;;6.57;100.00;102683.97;5084757;28;19938;-76
2022/01/29 01:13:30;;;;;;;;;;;;;;;6.60;100.00;102675.25;5086302;28;20011;-76
2022/01/29 01:15:55;;;;;;;;;;;;;;;6.62;100.00;102671.78;5086590;28;19978;-75
2022/01/29 01:18:20;;;;;;;;;;;;;;;6.70;100.00;102676.16;5085801;28;20331;-77
2022/01/29 01:20:46;;;;;;;;;;;;;;;6.70;100.00;102666.56;5086030;28;20587;-77
2022/01/29 01:23:11;;;;;;;;;;;;;;;6.72;100.00;102667.44;5086359;28;20011;-78
2022/01/29 01:25:36;;;;;;;;;;;;;;;6.71;100.00;102659.59;5087310;28;20369;-77
2022/01/29 01:28:01;;;;;;;;;;;;;;;6.71;100.00;102659.59;5084073;28;19920;-75
2022/01/29 01:30:27;;;;;;;;;;;;;;;6.73;100.00;102657.84;5085457;28;19960;-77
2022/01/29 01:32:53;;;;;;;;;;;;;;;6.73;100.00;102660.44;5086878;28;19986;-77
2022/01/29 01:35:23;;;;;;;;;;;;;;;6.73;100.00;102644.78;5083952;28;20630;-71
2022/01/29 01:37:55;;;;;;;;;;;;;;;6.74;100.00;102649.13;5085847;28;19932;-71
2022/01/29 01:40:21;;;;;;;;;;;;;;;6.76;100.00;102656.13;5084675;28;19916;-72
2022/01/29 01:42:47;;;;;;;;;;;;;;;6.78;100.00;102653.50;5085389;28;19931;-72
2022/01/29 01:45:12;;;;;;;;;;;;;;;6.80;100.00;102646.53;5083355;28;19917;-71
2022/01/29 01:47:38;;;;;;;;;;;;;;;6.79;100.00;102650.00;5086498;28;19931;-72
2022/01/29 01:50:04;;;;;;;;;;;;;;;6.83;100.00;102650.88;5086634;28;19916;-72
2022/01/29 01:52:29;;;;;;;;;;;;;;;6.83;100.00;102640.41;5091677;28;19948;-71
2022/01/29 01:54:55;;;;;;;;;;;;;;;6.83;100.00;102635.19;5090345;28;20477;-70
2022/01/29 01:57:20;;;;;;;;;;;;;;;6.88;100.00;102626.47;5087826;28;19920;-70
2022/01/29 01:59:45;;;;;;;;;;;;;;;6.87;100.00;102627.34;5089319;28;19920;-71
2022/01/29 02:02:14;;;;;;;;;;;;;;;6.86;100.00;102625.59;5087845;28;20019;-71
2022/01/29 02:04:39;;;;;;;;;;;;;;;6.87;100.00;102616.88;5091108;28;19924;-71
2022/01/29 02:07:05;;;;;;;;;;;;;;;6.89;100.00;102615.16;5087459;28;20255;-72
2022/01/29 02:09:32;;;;;;;;;;;;;;;6.86;100.00;102604.69;5089281;28;20011;-71
2022/01/29 02:11:58;;;;;;;;;;;;;;;6.87;100.00;102606.44;5088993;28;19963;-71
2022/01/29 02:14:28;;;;;;;;;;;;;;;6.90;100.00;102598.59;5088241;28;19923;-72
2022/01/29 02:16:53;;;;;;;;;;;;;;;6.89;100.00;102596.84;5090392;28;19935;-71
2022/01/29 02:19:19;;;;;;;;;;;;;;;6.91;100.00;102582.06;5087963;28;19928;-72
2022/01/29 02:21:44;;;;;;;;;;;;;;;6.93;100.00;102582.91;5069988;28;19920;-71
2022/01/29 02:24:09;;;;;;;;;;;;;;;6.91;100.00;102579.44;5077808;28;20495;-73
2022/01/29 02:26:35;;;;;;;;;;;;;;;6.93;100.00;102574.19;5089214;28;19920;-72
2022/01/29 02:29:00;;;;;;;;;;;;;;;6.92;100.00;102581.19;5088356;28;19924;-71
2022/01/29 02:31:26;;;;;;;;;;;;;;;6.99;100.00;102579.41;5088094;28;19920;-72
2022/01/29 02:33:51;;;;;;;;;;;;;;;6.96;100.00;102572.44;5089515;28;20340;-72
2022/01/29 02:36:16;;;;;;;;;;;;;;;6.93;100.00;102564.63;5084416;28;20023;-75
2022/01/29 02:38:42;;;;;;;;;;;;;;;6.94;100.00;102566.38;5067700;28;19920;-72
2022/01/29 02:41:07;;;;;;;;;;;;;;;6.95;100.00;102547.16;5078934;28;19916;-72
2022/01/29 02:43:39;;;;;;;;;;;;;;;6.94;100.00;102545.47;5091574;28;20375;-78
2022/01/29 02:46:12;;;;;;;;;;;;;;;6.95;100.00;102552.41;5087798;28;20349;-72
2022/01/29 02:48:37;;;;;;;;;;;;;;;6.98;100.00;102546.31;5090960;28;20011;-72
2022/01/29 02:51:03;;;;;;;;;;;;;;;6.96;100.00;102545.44;5086947;28;20433;-73
2022/01/29 02:53:28;;;;;;;;;;;;;;;6.96;100.00;102528.00;5073063;28;20010;-72
2022/01/29 02:55:54;;;;;;;;;;;;;;;6.97;100.00;102527.13;5085372;28;20007;-72
2022/01/29 02:58:19;;;;;;;;;;;;;;;6.96;100.00;102524.53;5066016;28;19924;-73
2022/01/29 03:00:44;;;;;;;;;;;;;;;6.96;100.00;102517.56;5065697;28;19948;-71
2022/01/29 03:03:10;;;;;;;;;;;;;;;6.97;100.00;102528.91;5065877;28;19928;-72
2022/01/29 03:05:35;;;;;;;;;;;;;;;6.95;100.00;102520.19;5067501;28;19920;-71
2022/01/29 03:08:00;;;;;;;;;;;;;;;6.94;100.00;102524.56;5065908;28;20397;-71
2022/01/29 03:10:26;;;;;;;;;;;;;;;6.96;100.00;102512.34;5065984;28;19974;-71
2022/01/29 03:12:51;;;;;;;;;;;;;;;6.94;100.00;102508.88;5066825;28;20302;-71
2022/01/29 03:15:17;;;;;;;;;;;;;;;6.95;100.00;102521.03;5065079;28;19920;-71
2022/01/29 03:17:42;;;;;;;;;;;;;;;6.96;100.00;102509.72;5067792;28;19965;-72
2022/01/29 03:20:08;;;;;;;;;;;;;;;7.02;100.00;102516.66;5074543;28;19916;-77
2022/01/29 03:22:33;;;;;;;;;;;;;;;7.02;100.00;102511.44;5093799;27;19928;-77
2022/01/29 03:24:58;;;;;;;;;;;;;;;7.06;100.00;102496.59;5107977;27;20513;-78
2022/01/29 03:27:24;;;;;;;;;;;;;;;7.07;100.00;102498.34;5108486;27;19916;-78
2022/01/29 03:29:49;;;;;;;;;;;;;;;7.08;100.00;102506.19;5110756;27;19920;-75
2022/01/29 03:32:14;;;;;;;;;;;;;;;7.08;100.00;102497.47;5109617;27;19919;-74
2022/01/29 03:34:40;;;;;;;;;;;;;;;7.07;100.00;102498.34;5104549;28;19969;-77
2022/01/29 03:37:05;;;;;;;;;;;;;;;7.11;100.00;102493.09;5076855;28;20218;-77
2022/01/29 03:39:33;;;;;;;;;;;;;;;7.13;100.00;102482.66;5070115;28;19921;-77
2022/01/29 03:42:03;;;;;;;;;;;;;;;7.16;100.00;102481.75;5072353;28;19916;-76
2022/01/29 03:44:28;;;;;;;;;;;;;;;7.14;100.00;102473.94;5069929;28;19925;-77
2022/01/29 03:46:53;;;;;;;;;;;;;;;7.12;100.00;102488.75;5069659;28;19929;-78
2022/01/29 03:49:19;;;;;;;;;;;;;;;7.12;100.00;102476.53;5068150;28;19917;-78
2022/01/29 03:51:44;;;;;;;;;;;;;;;7.15;100.00;102483.50;5070315;28;20281;-78
2022/01/29 03:54:09;;;;;;;;;;;;;;;7.12;100.00;102473.91;5079113;28;19923;-76
2022/01/29 03:56:35;;;;;;;;;;;;;;;7.13;100.00;102472.19;5089868;28;20577;-75
2022/01/29 03:59:00;;;;;;;;;;;;;;;7.07;100.00;102461.75;5089407;28;19920;-74
2022/01/29 04:01:25;;;;;;;;;;;;;;;7.07;100.00;102464.38;5087063;28;20027;-76
2022/01/29 04:03:51;;;;;;;;;;;;;;;7.06;100.00;102468.75;5088526;28;19924;-77
2022/01/29 04:06:16;;;;;;;;;;;;;;;7.07;100.00;102462.63;5087841;28;19916;-76
2022/01/29 04:08:43;;;;;;;;;;;;;;;7.11;100.00;102463.47;5089341;28;19970;-77
2022/01/29 04:11:11;;;;;;;;;;;;;;;7.12;100.00;102460.00;5086905;28;19935;-77
2022/01/29 04:13:38;;;;;;;;;;;;;;;7.18;100.00;102453.88;5091760;28;19987;-76
2022/01/29 04:16:03;;;;;;;;;;;;;;;7.18;100.00;102462.56;5087748;28;19973;-76
2022/01/29 04:18:28;;;;;;;;;;;;;;;7.11;100.00;102446.03;5087051;28;20357;-76
2022/01/29 04:20:54;;;;;;;;;;;;;;;7.16;100.00;102446.03;5076079;28;19916;-72
2022/01/29 04:23:19;;;;;;;;;;;;;;;7.11;100.00;102448.66;5069025;28;20917;-76
2022/01/29 04:25:44;;;;;;;;;;;;;;;7.16;100.00;102443.44;5087420;28;19955;-76
2022/01/29 04:28:12;;;;;;;;;;;;;;;7.19;100.00;102451.22;5086747;28;19951;-76
2022/01/29 04:35:43;;;;;;;;;;;;;;;7.19;100.00;102434.69;5087076;28;19970;-71
2022/01/29 04:38:08;;;;;;;;;;;;;;;7.21;100.00;102436.41;5086115;28;19916;-72
2022/01/29 04:40:35;;;;;;;;;;;;;;;7.20;100.00;102431.19;5087548;28;20097;-79
2022/01/29 04:43:00;;;;;;;;;;;;;;;7.19;100.00;102434.69;5087480;28;20571;-75
2022/01/29 04:45:26;;;;;;;;;;;;;;;7.21;100.00;102427.72;5099988;28;19921;-78
2022/01/29 04:47:51;;;;;;;;;;;;;;;7.23;100.00;102432.03;5068326;28;19948;-78
2022/01/29 04:50:16;;;;;;;;;;;;;;;7.27;100.00;102431.16;5065063;28;19982;-73
2022/01/29 04:52:42;;;;;;;;;;;;;;;7.28;100.00;102435.47;5066343;28;19920;-72
2022/01/29 04:55:08;;;;;;;;;;;;;;;7.30;100.00;102439.81;5084516;28;19922;-73
2022/01/29 04:57:33;;;;;;;;;;;;;;;7.33;100.00;102439.81;5084430;28;20379;-71
2022/01/29 04:59:59;;;;;;;;;;;;;;;7.36;100.00;102431.97;5084765;28;19916;-71
2022/01/29 05:02:24;;;;;;;;;;;;;;;7.35;100.00;102425.00;5083156;28;19973;-72
2022/01/29 05:04:50;;;;;;;;;;;;;;;7.37;100.00;102408.41;5088001;28;19920;-76
2022/01/29 05:07:15;;;;;;;;;;;;;;;7.36;100.00;102409.28;5084164;28;19969;-71
2022/01/29 05:09:40;;;;;;;;;;;;;;;7.33;100.00;102400.59;5083885;28;19920;-73
2022/01/29 05:12:06;;;;;;;;;;;;;;;7.30;100.00;102398.00;5085134;28;20003;-72
2022/01/29 05:26:50;;;;;;;;;;;;;;;7.17;100.00;102402.47;5067119;28;19917;-72
2022/01/29 05:27:44;;;;;;;;;;;;;;;7.11;100.00;102411.22;5089501;28;19920;-71
2022/01/29 05:30:10;;;;;;;;;;;;;;;7.18;100.00;102404.19;5089334;28;20302;-71
2022/01/29 05:32:35;;;;;;;;;;;;;;;7.17;100.00;102405.94;5089449;28;19920;-72
2022/01/29 05:35:00;;;;;;;;;;;;;;;7.23;100.00;102411.13;5092167;28;20344;-77
2022/01/29 05:37:26;;;;;;;;;;;;;;;7.25;100.00;102398.91;5079218;28;19924;-80
2022/01/29 05:39:51;;;;;;;;;;;;;;;7.29;100.00;102397.13;5073394;28;20003;-79
2022/01/29 05:42:16;;;;;;;;;;;;;;;7.35;100.00;102396.22;5076717;28;19927;-70
2022/01/29 05:44:41;;;;;;;;;;;;;;;7.37;100.00;102395.31;5089222;28;19978;-72
2022/01/29 05:47:07;;;;;;;;;;;;;;;7.43;100.00;102399.63;5090785;28;20313;-81
2022/01/29 05:49:32;;;;;;;;;;;;;;;7.48;100.00;102386.53;5092339;28;19989;-80
2022/01/29 05:51:57;;;;;;;;;;;;;;;7.52;100.00;102385.63;5092925;28;19920;-80
2022/01/29 05:54:22;;;;;;;;;;;;;;;7.51;100.00;102381.28;5091236;28;19920;-80
2022/01/29 05:56:48;;;;;;;;;;;;;;;7.56;100.00;102377.72;5093070;28;19977;-79
2022/01/29 05:59:13;;;;;;;;;;;;;;;7.56;100.00;102371.63;5092321;28;19920;-80
2022/01/29 06:01:38;;;;;;;;;;;;;;;7.56;100.00;102375.13;5090771;28;19920;-81
2022/01/29 06:04:06;;;;;;;;;;;;;;;7.60;100.00;102381.19;5076461;28;19985;-79
2022/01/29 06:06:31;;;;;;;;;;;;;;;7.57;100.00;102383.81;5072389;28;19917;-79
2022/01/29 06:08:56;;;;;;;;;;;;;;;7.54;100.00;102381.25;5071082;28;19920;-77
2022/01/29 06:11:22;;;;;;;;;;;;;;;7.52;100.00;102364.69;5082124;28;19924;-76
2022/01/29 06:13:47;;;;;;;;;;;;;;;7.57;100.00;102371.63;5068990;28;20015;-76
2022/01/29 06:16:12;;;;;;;;;;;;;;;7.59;100.00;102368.97;5069274;28;20384;-76
2022/01/29 06:18:38;;;;;;;;;;;;;;;7.62;100.00;102362.84;5069521;28;19917;-75
2022/01/29 06:21:04;;;;;;;;;;;;;;;7.63;100.00;102362.84;5068596;28;19916;-76
2022/01/29 06:23:32;;;;;;;;;;;;;;;7.65;100.00;102354.97;5072254;28;19929;-77
2022/01/29 06:25:58;;;;;;;;;;;;;;;7.69;100.00;102348.84;5090678;28;19963;-77
2022/01/29 06:28:23;;;;;;;;;;;;;;;7.72;100.00;102340.94;5087553;28;20425;-78
2022/01/29 06:30:59;;;;;;;;;;;;;;;7.75;100.00;102343.53;5088225;28;19943;-78
2022/01/29 06:33:24;;;;;;;;;;;;;;;7.80;100.00;102333.00;5086649;28;20022;-76
2022/01/29 06:35:50;;;;;;;;;;;;;;;7.84;100.00;102337.34;5088845;28;20086;-79
2022/01/29 06:38:15;;;;;;;;;;;;;;;7.82;100.00;102323.41;5089481;28;20012;-77
2022/01/29 06:40:41;;;;;;;;;;;;;;;7.80;100.00;102336.50;5091092;28;19958;-78
2022/01/29 06:43:06;;;;;;;;;;;;;;;7.84;100.00;102327.72;5091071;28;19967;-77
2022/01/29 06:45:32;;;;;;;;;;;;;;;7.88;100.00;102332.06;5090998;28;19974;-77
2022/01/29 06:47:58;;;;;;;;;;;;;;;7.92;100.00;102335.50;5091741;28;19924;-77
2022/01/29 06:50:23;;;;;;;;;;;;;;;7.89;100.00;102315.47;5090394;28;20376;-72
2022/01/29 06:52:48;;;;;;;;;;;;;;;7.87;100.00;102329.47;5087460;27;19916;-72
2022/01/29 06:55:14;;;;;;;;;;;;;;;7.84;100.00;102317.25;5087937;28;20025;-72
2022/01/29 06:57:39;;;;;;;;;;;;;;;7.91;100.00;102315.44;5071223;28;19920;-72
2022/01/29 07:00:07;;;;;;;;;;;;;;;7.87;100.00;102316.38;5065998;28;19983;-72
2022/01/29 07:02:33;;;;;;;;;;;;;;;7.89;100.00;102318.09;5084114;28;19926;-72
2022/01/29 07:04:58;;;;;;;;;;;;;;;7.89;100.00;102318.09;5090422;28;20006;-77
2022/01/29 07:07:23;;;;;;;;;;;;;;;7.93;100.00;102320.69;5089433;28;19916;-80
2022/01/29 07:09:49;;;;;;;;;;;;;;;7.89;100.00;102325.94;5089340;28;20007;-80
2022/01/29 07:12:14;;;;;;;;;;;;;;;7.89;100.00;102312.84;5089401;28;19965;-79
2022/01/29 07:14:40;;;;;;;;;;;;;;;7.89;100.00;102318.09;5089605;28;19939;-78
2022/01/29 07:17:22;;;;;;;;;;;;;;;7.88;100.00;102313.75;5093239;28;20226;-79
2022/01/29 07:19:48;;;;;;;;;;;;;;;7.91;100.00;102314.59;5106281;28;19924;-79
2022/01/29 07:22:13;;;;;;;;;;;;;;;7.87;100.00;102317.25;5090449;28;19939;-79
2022/01/29 07:24:39;;;;;;;;;;;;;;;7.91;100.00;102323.28;5090643;28;19932;-76
2022/01/29 07:27:04;;;;;;;;;;;;;;;7.92;100.00;102305.88;5088533;28;20017;-76
2022/01/29 07:29:30;;;;;;;;;;;;;;;7.92;100.00;102296.25;5090347;28;19963;-75
2022/01/29 07:34:36;;;;;;;;;;;;;;;8.02;100.00;102299.63;5084433;28;19999;-76
2022/01/29 07:37:01;;;;;;;;;;;;;;;7.97;100.00;102296.19;5080452;28;20793;-76
2022/01/29 07:39:27;;;;;;;;;;;;;;;7.95;100.00;102295.34;5089970;28;19923;-73
2022/01/29 07:41:53;;;;;;;;;;;;;;;7.97;100.00;102294.44;5087062;28;20034;-77
2022/01/29 07:44:18;;;;;;;;;;;;;;;8.02;100.00;102295.25;5088911;28;19971;-77
2022/01/29 07:46:44;;;;;;;;;;;;;;;8.02;100.00;102291.78;5087483;28;19975;-72
2022/01/29 07:49:09;;;;;;;;;;;;;;;8.05;100.00;102295.22;5086908;28;19920;-72
2022/01/29 07:51:35;;;;;;;;;;;;;;;8.07;100.00;102279.47;5081855;28;19920;-73
2022/01/29 07:54:00;;;;;;;;;;;;;;;8.13;100.00;102284.66;5075608;28;20020;-72
2022/01/29 07:56:26;;;;;;;;;;;;;;;8.12;100.00;102288.16;5087501;28;19928;-72
2022/01/29 07:58:51;;;;;;;;;;;;;;;8.20;100.00;102278.44;5088011;28;19923;-77
2022/01/29 08:01:17;;;;;;;;;;;;;;;8.20;100.00;102282.81;5089197;28;19920;-77
2022/01/29 08:03:46;;;;;;;;;;;;;;;8.28;100.00;102273.09;5075083;28;20373;-77
2022/01/29 08:06:12;;;;;;;;;;;;;;;8.37;100.00;102269.50;5068163;28;20333;-81
2022/01/29 08:08:37;;;;;;;;;;;;;;;8.38;100.00;102263.34;5068064;28;19921;-74
2022/01/29 08:11:02;;;;;;;;;;;;;;;8.40;100.00;102258.09;5081140;28;19924;-76
2022/01/29 08:13:27;;;;;;;;;;;;;;;8.43;100.00;102266.78;5089446;28;19920;-75
2022/01/29 08:15:53;;;;;;;;;;;;;;;8.40;100.00;102264.19;5087876;28;20003;-70
2022/01/29 08:18:18;;;;;;;;;;;;;;;8.53;100.00;102267.53;5086606;28;19920;-71
2022/01/29 08:20:43;;;;;;;;;;;;;;;8.46;100.00;102266.72;5075924;28;19916;-71
2022/01/29 08:23:09;;;;;;;;;;;;;;;8.45;100.00;102254.53;5068198;28;20258;-70
2022/01/29 08:25:36;;;;;;;;;;;;;;;8.45;99.77;102259.75;5087391;28;19927;-71
2022/01/29 08:28:01;;;;;;;;;;;;;;;8.45;99.96;102265.00;5086441;28;19928;-73
2022/01/29 08:30:26;;;;;;;;;;;;;;;8.46;99.97;102251.03;5085432;28;19977;-71
2022/01/29 08:32:52;;;;;;;;;;;;;;;8.47;99.83;102244.94;5086184;28;19923;-72
2022/01/29 08:35:17;;;;;;;;;;;;;;;8.48;99.95;102243.16;5086411;28;19960;-73
2022/01/29 08:37:45;;;;;;;;;;;;;;;8.51;99.60;102246.59;5089063;28;19934;-74
2022/01/29 08:40:11;;;;;;;;;;;;;;;8.53;99.46;102235.22;5088459;28;19926;-73
2022/01/29 08:42:37;;;;;;;;;;;;;;;8.54;99.58;102234.34;5088776;28;19920;-78
2022/01/29 08:45:04;;;;;;;;;;;;;;;8.50;99.71;102237.00;5087798;28;19920;-77
2022/01/29 08:47:29;;;;;;;;;;;;;;;8.52;99.35;102221.28;5089630;28;19966;-72
2022/01/29 08:49:55;;;;;;;;;;;;;;;8.60;99.09;102211.53;5086069;28;20413;-71
2022/01/29 08:52:20;;;;;;;;;;;;;;;8.56;99.38;102225.56;5086523;28;19928;-76
2022/01/29 08:54:46;;;;;;;;;;;;;;;8.60;98.82;102214.16;5087255;28;19939;-75
2022/01/29 08:57:11;;;;;;;;;;;;;;;8.53;99.24;102214.28;5090771;28;19926;-78
2022/01/29 08:59:36;;;;;;;;;;;;;;;8.54;99.20;102214.28;5095104;28;19926;-74
2022/01/29 09:02:01;;;;;;;;;;;;;;;8.54;99.08;102218.63;5101415;28;20011;-78
2022/01/29 09:04:27;;;;;;;;;;;;;;;8.56;98.88;102209.00;5098085;28;19931;-77
2022/01/29 09:06:52;;;;;;;;;;;;;;;8.55;98.63;102221.22;5094299;28;20300;-79
2022/01/29 09:09:23;;;;;;;;;;;;;;;8.58;98.70;102215.94;5095906;28;19916;-78
2022/01/29 09:11:49;;;;;;;;;;;;;;;8.55;98.58;102202.03;5083482;28;20408;-77
2022/01/29 09:14:14;;;;;;;;;;;;;;;8.53;98.69;102207.28;5095463;28;20414;-76
2022/01/29 09:16:39;;;;;;;;;;;;;;;8.50;98.78;102189.84;5098003;28;19916;-76
2022/01/29 09:19:05;;;;;;;;;;;;;;;8.53;98.41;102190.69;5097386;28;19962;-77
2022/01/29 09:21:30;;;;;;;;;;;;;;;8.62;98.25;102187.91;5102140;28;19953;-76
2022/01/29 09:23:56;;;;;;;;;;;;;;;8.64;98.03;102187.03;5093721;28;19920;-76
2022/01/29 09:26:22;;;;;;;;;;;;;;;8.66;97.78;102184.38;5093527;28;20007;-76
2022/01/29 09:28:47;;;;;;;;;;;;;;;8.70;97.58;102172.06;5095578;28;20262;-78
2022/01/29 09:31:12;;;;;;;;;;;;;;;8.79;96.96;102178.03;5094161;28;19923;-76
2022/01/29 09:33:38;;;;;;;;;;;;;;;8.81;96.31;102164.88;5096692;28;20018;-76
2022/01/29 09:36:03;;;;;;;;;;;;;;;8.86;96.45;102170.03;5093274;28;19920;-76
2022/01/29 09:38:29;;;;;;;;;;;;;;;9.62;93.01;102151.06;5095841;28;19927;-75
2022/01/29 09:40:54;;;;;;;;;;;;;;;10.19;89.58;102120.00;5096977;28;19965;-76
2022/01/29 09:43:21;;;;;;;;;;;;;;;10.54;87.43;102105.16;5088354;28;19983;-81
2022/01/29 09:45:49;;;;;;;;;;;;;;;11.14;85.73;102089.47;5104584;28;19958;-77
2022/01/29 09:48:18;;;;;;;;;;;;;;;10.83;84.79;102096.50;5096984;28;19928;-77
2022/01/29 09:50:44;;;;;;;;;;;;;;;10.95;84.72;102095.28;5092919;28;19919;-76
2022/01/29 09:53:09;;;;;;;;;;;;;;;10.69;85.50;102110.91;5087007;28;20424;-76
2022/01/29 09:55:34;;;;;;;;;;;;;;;10.25;87.46;102124.25;5088717;28;20004;-78
2022/01/29 09:57:59;;;;;;;;;;;;;;;10.16;87.98;102117.44;5085212;28;19920;-78
2022/01/29 10:00:25;;;;;;;;;;;;;;;9.88;89.21;102120.75;5084832;28;19917;-77
2022/01/29 10:03:05;;;;;;;;;;;;;;;9.96;89.31;102112.69;5085613;28;20434;-78
2022/01/29 10:05:46;;;;;;;;;;;;;;;10.49;86.99;102107.03;5065224;28;19920;-78
2022/01/29 10:08:12;;;;;;;;;;;;;;;10.91;84.70;102080.50;5063661;28;19921;-79
2022/01/29 10:10:39;;;;;;;;;;;;;;;11.12;83.36;102081.63;5082467;28;19927;-77
2022/01/29 10:13:20;;;;;;;;;;;;;;;11.24;82.72;102095.34;5088523;28;19920;-80
2022/01/29 10:15:45;;;;;;;;;;;;;;;10.93;83.76;102091.81;5089284;28;19916;-80
2022/01/29 10:18:10;;;;;;;;;;;;;;;11.18;83.01;102090.28;5080567;28;19927;-78
2022/01/29 10:20:35;;;;;;;;;;;;;;;11.59;81.78;102073.22;5080578;28;20370;-72
2022/01/29 10:23:01;;;;;;;;;;;;;;;11.69;81.16;102062.38;5067510;28;19924;-72
2022/01/29 10:25:28;;;;;;;;;;;;;;;11.94;80.33;102048.44;5088338;28;19964;-72
2022/01/29 10:28:09;;;;;;;;;;;;;;;12.03;79.03;102035.88;5085845;28;19920;-73
2022/01/29 10:30:35;;;;;;;;;;;;;;;11.49;80.96;102053.34;5086707;28;19916;-74
2022/01/29 10:33:17;;;;;;;;;;;;;;;11.56;80.90;102075.09;5082046;28;19928;-72
2022/01/29 10:35:43;;;;;;;;;;;;;;;11.61;79.94;102078.44;5089322;28;19959;-74
2022/01/29 10:38:08;;;;;;;;;;;;;;;10.85;82.97;102087.72;5087933;27;19920;-72
2022/01/29 10:40:34;;;;;;;;;;;;;;;10.60;84.34;102097.09;5089101;28;19927;-72
2022/01/29 10:43:04;;;;;;;;;;;;;;;10.58;85.03;102085.78;5088615;28;19951;-72
2022/01/29 10:45:44;;;;;;;;;;;;;;;10.63;84.46;102085.66;5081750;28;19969;-73
2022/01/29 10:48:10;;;;;;;;;;;;;;;11.06;83.13;102062.53;5087321;28;19924;-72
2022/01/29 10:50:35;;;;;;;;;;;;;;;11.50;80.59;102048.97;5078667;28;19917;-73
2022/01/29 10:53:15;;;;;;;;;;;;;;;11.42;80.92;102034.25;5058667;28;19928;-73
2022/01/29 10:55:56;;;;;;;;;;;;;;;11.71;79.55;102015.81;5065604;28;19920;-73
2022/01/29 10:58:22;;;;;;;;;;;;;;;11.15;81.93;102035.97;5057587;28;20301;-73
2022/01/29 11:01:07;;;;;;;;;;;;;;;10.88;83.39;102051.66;5083906;28;19920;-72
2022/01/29 11:03:32;;;;;;;;;;;;;;;10.50;85.12;102059.72;5079960;28;19920;-73
2022/01/29 11:05:58;;;;;;;;;;;;;;;10.35;85.78;102070.59;5086998;28;19923;-73
2022/01/29 11:08:24;;;;;;;;;;;;;;;10.31;86.32;102082.06;5085692;28;20258;-72
2022/01/29 11:10:49;;;;;;;;;;;;;;;10.24;86.61;102057.75;5065401;28;19924;-73
2022/01/29 11:13:15;;;;;;;;;;;;;;;10.13;87.06;102046.66;5047844;28;20575;-72
2022/01/29 11:15:40;;;;;;;;;;;;;;;9.99;87.34;102058.34;5050494;28;19917;-72
2022/01/29 11:18:05;;;;;;;;;;;;;;;10.04;87.77;102052.97;5065135;28;20366;-72
2022/01/29 11:20:31;;;;;;;;;;;;;;;10.10;87.36;102044.09;5058259;28;19920;-73
2022/01/29 11:22:56;;;;;;;;;;;;;;;10.13;87.07;102039.63;5047648;28;19925;-72
2022/01/29 11:25:27;;;;;;;;;;;;;;;10.12;87.16;102061.53;5064521;28;20015;-74
2022/01/29 11:28:08;;;;;;;;;;;;;;;10.04;87.34;102055.59;5069983;28;19923;-74
2022/01/29 11:30:33;;;;;;;;;;;;;;;10.02;87.54;102070.53;5067288;28;19925;-74
2022/01/29 11:33:00;;;;;;;;;;;;;;;9.91;87.58;102047.19;5068110;28;19923;-73
2022/01/29 11:35:25;;;;;;;;;;;;;;;9.92;88.17;102041.03;5084666;28;19965;-73
2022/01/29 11:38:06;;;;;;;;;;;;;;;9.93;88.02;102039.25;5091197;28;20005;-75
2022/01/29 11:40:31;;;;;;;;;;;;;;;10.05;87.71;102050.31;5086956;28;19923;-76
2022/01/29 11:43:12;;;;;;;;;;;;;;;10.12;87.11;102013.41;5088132;28;20513;-73
2022/01/29 11:48:38;;;;;;;;;;;;;;;10.02;87.98;102013.66;5087570;28;19932;-74
2022/01/29 11:51:05;;;;;;;;;;;;;;;9.92;88.29;102011.28;5086961;28;19927;-75
2022/01/29 11:53:45;;;;;;;;;;;;;;;10.02;88.08;102002.25;5081944;28;20460;-73
2022/01/29 11:56:27;;;;;;;;;;;;;;;10.07;87.96;102005.66;5089876;28;19959;-73
2022/01/29 11:59:12;;;;;;;;;;;;;;;10.01;88.02;102001.41;5095364;28;19981;-72
2022/01/29 12:01:37;;;;;;;;;;;;;;;10.01;87.94;101990.91;5083077;28;19930;-74
2022/01/29 12:04:03;;;;;;;;;;;;;;;10.05;88.36;101975.94;5089539;27;19936;-75
2022/01/29 12:06:32;;;;;;;;;;;;;;;10.12;87.42;102000.28;5090176;28;20482;-75
2022/01/29 12:08:59;;;;;;;;;;;;;;;10.09;87.85;101984.59;5093602;28;20006;-76
2022/01/29 12:11:25;;;;;;;;;;;;;;;9.96;88.10;101982.28;5092659;28;20332;-74
2022/01/29 12:14:06;;;;;;;;;;;;;;;9.75;88.77;101974.06;5100621;27;19962;-74
2022/01/29 12:19:42;;;;;;;;;;;;;;;9.76;89.62;101977.53;5087724;28;19959;-75
2022/01/29 12:22:25;;;;;;;;;;;;;;;9.73;89.45;101957.47;5067752;28;19944;-75
2022/01/29 12:25:06;;;;;;;;;;;;;;;9.82;89.38;101956.41;5091720;28;19927;-76
2022/01/29 12:27:47;;;;;;;;;;;;;;;9.88;89.10;101950.13;5095126;28;20361;-74
2022/01/29 12:30:14;;;;;;;;;;;;;;;9.85;88.92;101942.31;5101569;28;19916;-75
2022/01/29 12:32:39;;;;;;;;;;;;;;;9.92;88.51;101951.78;5087036;28;19976;-73
2022/01/29 12:35:06;;;;;;;;;;;;;;;10.02;88.11;101955.88;5092578;28;19920;-76
2022/01/29 12:37:31;;;;;;;;;;;;;;;10.09;88.08;101953.09;5086696;28;20405;-74
2022/01/29 12:40:19;;;;;;;;;;;;;;;10.10;87.57;101936.44;5086224;28;19924;-75
2022/01/29 12:42:55;;;;;;;;;;;;;;;10.16;87.66;101944.13;5088018;28;19920;-75
2022/01/29 12:45:21;;;;;;;;;;;;;;;10.13;87.05;101949.47;5093430;28;20537;-74
2022/01/29 12:47:46;;;;;;;;;;;;;;;10.20;86.96;101945.78;5085407;28;20010;-75
2022/01/29 12:50:18;;;;;;;;;;;;;;;10.17;87.32;101966.88;5086434;28;19998;-74
2022/01/29 12:52:43;;;;;;;;;;;;;;;10.29;86.73;101942.88;5085826;28;19955;-73
2022/01/29 12:55:12;;;;;;;;;;;;;;;10.25;86.65;101954.41;5086616;28;19970;-75
2022/01/29 12:57:52;;;;;;;;;;;;;;;10.34;86.71;101956.78;5086090;28;19973;-74
2022/01/29 13:00:19;;;;;;;;;;;;;;;10.16;87.19;101949.38;5086253;28;19916;-76